sensor_id;sensor_type;location;lat;lon;timestamp;P1;durP1;ratioP1;P2;durP2;ratioP2
13090;SDS011;6611;52.604;13.438;2023-07-28T00:00:53;1.90;;;1.70;;
13090;SDS011;6611;52.604;13.438;2023-07-28T00:05:55;1.40;;;1.03;;
13090;SDS011;6611;52.604;13.438;2023-07-28T00:10:57;1.33;;;1.00;;
13090;SDS011;6611;52.604;13.438;2023-07-28T00:16:00;0.70;;;0.70;;
13090;SDS011;6611;52.604;13.438;2023-07-28T00:21:01;1.40;;;0.80;;
13090;SDS011;6611;52.604;13.438;2023-07-28T00:26:03;1.03;;;1.00;;
13090;SDS011;6611;52.604;13.438;2023-07-28T00:31:06;1.17;;;1.00;;
13090;SDS011;6611;52.604;13.438;2023-07-28T00:36:08;1.33;;;1.10;;
13090;SDS011;6611;52.604;13.438;2023-07-28T00:41:09;1.20;;;1.10;;
13090;SDS011;6611;52.604;13.438;2023-07-28T00:46:12;1.10;;;1.00;;
13090;SDS011;6611;52.604;13.438;2023-07-28T00:51:15;1.70;;;1.60;;
13090;SDS011;6611;52.604;13.438;2023-07-28T00:56:17;2.53;;;1.80;;
13090;SDS011;6611;52.604;13.438;2023-07-28T01:01:20;1.97;;;1.77;;
13090;SDS011;6611;52.604;13.438;2023-07-28T01:06:24;2.17;;;1.97;;
13090;SDS011;6611;52.604;13.438;2023-07-28T01:11:31;2.23;;;2.03;;
13090;SDS011;6611;52.604;13.438;2023-07-28T01:16:34;2.37;;;2.17;;
13090;SDS011;6611;52.604;13.438;2023-07-28T01:21:36;2.83;;;2.33;;
13090;SDS011;6611;52.604;13.438;2023-07-28T01:26:45;2.40;;;2.20;;
13090;SDS011;6611;52.604;13.438;2023-07-28T01:31:47;2.30;;;2.10;;
13090;SDS011;6611;52.604;13.438;2023-07-28T01:36:49;4.60;;;2.17;;
13090;SDS011;6611;52.604;13.438;2023-07-28T01:41:52;2.40;;;2.07;;
13090;SDS011;6611;52.604;13.438;2023-07-28T01:46:54;2.10;;;1.90;;
13090;SDS011;6611;52.604;13.438;2023-07-28T01:51:55;2.17;;;1.90;;
13090;SDS011;6611;52.604;13.438;2023-07-28T01:56:58;2.00;;;1.90;;
13090;SDS011;6611;52.604;13.438;2023-07-28T02:02:00;3.23;;;2.10;;
13090;SDS011;6611;52.604;13.438;2023-07-28T02:07:01;2.23;;;2.03;;
13090;SDS011;6611;52.604;13.438;2023-07-28T02:12:05;3.83;;;2.40;;
13090;SDS011;6611;52.604;13.438;2023-07-28T02:17:07;3.60;;;2.73;;
13090;SDS011;6611;52.604;13.438;2023-07-28T02:22:09;3.83;;;2.97;;
13090;SDS011;6611;52.604;13.438;2023-07-28T02:27:12;4.40;;;3.43;;
13090;SDS011;6611;52.604;13.438;2023-07-28T02:32:14;3.67;;;3.23;;
13090;SDS011;6611;52.604;13.438;2023-07-28T02:37:16;4.73;;;3.13;;
13090;SDS011;6611;52.604;13.438;2023-07-28T02:42:19;4.47;;;3.80;;
13090;SDS011;6611;52.604;13.438;2023-07-28T02:47:20;5.00;;;4.17;;
13090;SDS011;6611;52.604;13.438;2023-07-28T02:52:22;4.53;;;4.07;;
13090;SDS011;6611;52.604;13.438;2023-07-28T02:57:25;5.57;;;3.57;;
13090;SDS011;6611;52.604;13.438;2023-07-28T03:02:27;5.70;;;4.00;;
13090;SDS011;6611;52.604;13.438;2023-07-28T03:07:28;5.10;;;4.57;;
13090;SDS011;6611;52.604;13.438;2023-07-28T03:12:31;6.00;;;4.37;;
13090;SDS011;6611;52.604;13.438;2023-07-28T03:17:33;9.23;;;4.83;;
13090;SDS011;6611;52.604;13.438;2023-07-28T03:22:35;7.60;;;5.33;;
13090;SDS011;6611;52.604;13.438;2023-07-28T03:27:38;5.87;;;4.83;;
13090;SDS011;6611;52.604;13.438;2023-07-28T03:32:41;5.50;;;4.50;;
13090;SDS011;6611;52.604;13.438;2023-07-28T03:37:42;5.47;;;4.57;;
13090;SDS011;6611;52.604;13.438;2023-07-28T03:42:45;7.93;;;4.80;;
13090;SDS011;6611;52.604;13.438;2023-07-28T03:47:47;6.37;;;5.17;;
13090;SDS011;6611;52.604;13.438;2023-07-28T03:52:49;5.10;;;4.60;;
13090;SDS011;6611;52.604;13.438;2023-07-28T03:57:52;6.00;;;4.50;;
13090;SDS011;6611;52.604;13.438;2023-07-28T04:02:54;6.67;;;4.97;;
13090;SDS011;6611;52.604;13.438;2023-07-28T04:07:55;6.07;;;4.90;;
13090;SDS011;6611;52.604;13.438;2023-07-28T04:12:58;6.07;;;5.10;;
13090;SDS011;6611;52.604;13.438;2023-07-28T04:18:00;5.97;;;5.17;;
13090;SDS011;6611;52.604;13.438;2023-07-28T04:23:01;5.30;;;4.60;;
13090;SDS011;6611;52.604;13.438;2023-07-28T04:28:05;10.43;;;5.33;;
13090;SDS011;6611;52.604;13.438;2023-07-28T04:33:06;6.90;;;5.10;;
13090;SDS011;6611;52.604;13.438;2023-07-28T04:38:08;6.40;;;5.20;;
13090;SDS011;6611;52.604;13.438;2023-07-28T04:43:11;5.87;;;5.17;;
13090;SDS011;6611;52.604;13.438;2023-07-28T04:48:12;6.30;;;5.63;;
13090;SDS011;6611;52.604;13.438;2023-07-28T04:53:14;5.77;;;5.03;;
13090;SDS011;6611;52.604;13.438;2023-07-28T04:58:17;5.40;;;4.87;;
13090;SDS011;6611;52.604;13.438;2023-07-28T05:03:19;7.97;;;5.50;;
13090;SDS011;6611;52.604;13.438;2023-07-28T05:08:20;7.07;;;5.00;;
13090;SDS011;6611;52.604;13.438;2023-07-28T05:13:23;5.27;;;4.27;;
13090;SDS011;6611;52.604;13.438;2023-07-28T05:18:25;5.57;;;4.80;;
13090;SDS011;6611;52.604;13.438;2023-07-28T05:23:27;5.10;;;4.00;;
13090;SDS011;6611;52.604;13.438;2023-07-28T05:28:31;7.27;;;4.67;;
13090;SDS011;6611;52.604;13.438;2023-07-28T05:33:38;5.97;;;5.37;;
13090;SDS011;6611;52.604;13.438;2023-07-28T05:38:40;7.37;;;5.23;;
13090;SDS011;6611;52.604;13.438;2023-07-28T05:43:43;5.73;;;4.57;;
13090;SDS011;6611;52.604;13.438;2023-07-28T05:48:44;6.47;;;5.50;;
13090;SDS011;6611;52.604;13.438;2023-07-28T05:53:46;7.30;;;5.60;;
13090;SDS011;6611;52.604;13.438;2023-07-28T05:58:49;5.33;;;4.83;;
13090;SDS011;6611;52.604;13.438;2023-07-28T06:03:50;5.40;;;4.90;;
13090;SDS011;6611;52.604;13.438;2023-07-28T06:08:55;4.70;;;4.20;;
13090;SDS011;6611;52.604;13.438;2023-07-28T06:13:58;5.90;;;4.10;;
13090;SDS011;6611;52.604;13.438;2023-07-28T06:19:00;4.60;;;4.20;;
13090;SDS011;6611;52.604;13.438;2023-07-28T06:24:02;4.47;;;4.00;;
13090;SDS011;6611;52.604;13.438;2023-07-28T06:29:05;6.27;;;4.50;;
13090;SDS011;6611;52.604;13.438;2023-07-28T06:34:07;6.77;;;4.37;;
13090;SDS011;6611;52.604;13.438;2023-07-28T06:39:08;5.60;;;4.77;;
13090;SDS011;6611;52.604;13.438;2023-07-28T06:44:11;5.20;;;4.70;;
13090;SDS011;6611;52.604;13.438;2023-07-28T06:49:13;5.23;;;4.30;;
13090;SDS011;6611;52.604;13.438;2023-07-28T06:54:15;5.43;;;4.83;;
13090;SDS011;6611;52.604;13.438;2023-07-28T06:59:18;4.97;;;4.40;;
13090;SDS011;6611;52.604;13.438;2023-07-28T07:04:19;5.43;;;4.60;;
13090;SDS011;6611;52.604;13.438;2023-07-28T07:09:21;5.43;;;4.53;;
13090;SDS011;6611;52.604;13.438;2023-07-28T07:14:24;5.40;;;4.40;;
13090;SDS011;6611;52.604;13.438;2023-07-28T07:19:27;4.80;;;4.30;;
13090;SDS011;6611;52.604;13.438;2023-07-28T07:24:28;3.73;;;3.43;;
13090;SDS011;6611;52.604;13.438;2023-07-28T07:29:32;4.40;;;3.50;;
13090;SDS011;6611;52.604;13.438;2023-07-28T07:34:33;3.87;;;3.53;;
13090;SDS011;6611;52.604;13.438;2023-07-28T07:39:37;3.93;;;3.13;;
13090;SDS011;6611;52.604;13.438;2023-07-28T07:44:42;4.53;;;3.67;;
13090;SDS011;6611;52.604;13.438;2023-07-28T07:49:44;3.40;;;3.10;;
13090;SDS011;6611;52.604;13.438;2023-07-28T07:54:45;5.47;;;2.97;;
13090;SDS011;6611;52.604;13.438;2023-07-28T07:59:48;3.27;;;2.57;;
13090;SDS011;6611;52.604;13.438;2023-07-28T08:04:51;2.57;;;2.37;;
13090;SDS011;6611;52.604;13.438;2023-07-28T08:09:53;2.70;;;2.33;;
13090;SDS011;6611;52.604;13.438;2023-07-28T08:14:56;3.10;;;2.30;;
13090;SDS011;6611;52.604;13.438;2023-07-28T08:19:58;2.10;;;2.00;;
13090;SDS011;6611;52.604;13.438;2023-07-28T08:24:59;1.93;;;1.83;;
13090;SDS011;6611;52.604;13.438;2023-07-28T08:30:02;2.37;;;2.17;;
13090;SDS011;6611;52.604;13.438;2023-07-28T08:35:05;2.13;;;1.77;;
13090;SDS011;6611;52.604;13.438;2023-07-28T08:40:08;1.80;;;1.70;;
13090;SDS011;6611;52.604;13.438;2023-07-28T08:45:12;2.07;;;1.90;;
13090;SDS011;6611;52.604;13.438;2023-07-28T08:50:14;3.20;;;2.00;;
13090;SDS011;6611;52.604;13.438;2023-07-28T08:55:16;1.83;;;1.50;;
13090;SDS011;6611;52.604;13.438;2023-07-28T09:00:20;2.13;;;1.60;;
13090;SDS011;6611;52.604;13.438;2023-07-28T09:05:22;2.30;;;1.53;;
13090;SDS011;6611;52.604;13.438;2023-07-28T09:10:24;1.70;;;1.60;;
13090;SDS011;6611;52.604;13.438;2023-07-28T09:15:29;1.87;;;1.70;;
13090;SDS011;6611;52.604;13.438;2023-07-28T09:20:36;1.77;;;1.47;;
13090;SDS011;6611;52.604;13.438;2023-07-28T09:25:39;1.67;;;1.57;;
13090;SDS011;6611;52.604;13.438;2023-07-28T09:30:46;2.53;;;1.70;;
13090;SDS011;6611;52.604;13.438;2023-07-28T09:35:49;2.77;;;1.70;;
13090;SDS011;6611;52.604;13.438;2023-07-28T09:40:51;1.70;;;1.60;;
13090;SDS011;6611;52.604;13.438;2023-07-28T09:45:55;2.90;;;1.57;;
13090;SDS011;6611;52.604;13.438;2023-07-28T09:50:57;1.90;;;1.80;;
13090;SDS011;6611;52.604;13.438;2023-07-28T09:56:01;1.73;;;1.60;;
13090;SDS011;6611;52.604;13.438;2023-07-28T10:01:04;2.43;;;2.00;;
13090;SDS011;6611;52.604;13.438;2023-07-28T10:06:06;2.17;;;1.67;;
13090;SDS011;6611;52.604;13.438;2023-07-28T10:11:09;1.90;;;1.70;;
13090;SDS011;6611;52.604;13.438;2023-07-28T10:16:13;2.20;;;1.80;;
13090;SDS011;6611;52.604;13.438;2023-07-28T10:21:15;1.50;;;1.40;;
13090;SDS011;6611;52.604;13.438;2023-07-28T10:26:18;1.70;;;1.60;;
13090;SDS011;6611;52.604;13.438;2023-07-28T10:31:34;2.60;;;1.43;;
13090;SDS011;6611;52.604;13.438;2023-07-28T10:36:36;2.57;;;1.57;;
13090;SDS011;6611;52.604;13.438;2023-07-28T10:41:38;2.33;;;1.27;;
13090;SDS011;6611;52.604;13.438;2023-07-28T10:46:41;2.87;;;1.47;;
13090;SDS011;6611;52.604;13.438;2023-07-28T10:51:43;1.93;;;1.17;;
13090;SDS011;6611;52.604;13.438;2023-07-28T10:56:45;1.43;;;1.27;;
13090;SDS011;6611;52.604;13.438;2023-07-28T11:01:48;2.27;;;0.70;;
13090;SDS011;6611;52.604;13.438;2023-07-28T11:06:50;1.73;;;1.10;;
13090;SDS011;6611;52.604;13.438;2023-07-28T11:11:52;2.27;;;1.40;;
13090;SDS011;6611;52.604;13.438;2023-07-28T11:16:55;1.23;;;1.10;;
13090;SDS011;6611;52.604;13.438;2023-07-28T11:21:56;1.80;;;1.20;;
13090;SDS011;6611;52.604;13.438;2023-07-28T11:26:58;1.10;;;0.90;;
13090;SDS011;6611;52.604;13.438;2023-07-28T11:32:01;1.10;;;1.00;;
13090;SDS011;6611;52.604;13.438;2023-07-28T11:37:03;1.57;;;1.20;;
13090;SDS011;6611;52.604;13.438;2023-07-28T11:42:08;1.20;;;1.10;;
13090;SDS011;6611;52.604;13.438;2023-07-28T11:47:12;1.10;;;0.90;;
13090;SDS011;6611;52.604;13.438;2023-07-28T11:52:18;1.67;;;1.43;;
13090;SDS011;6611;52.604;13.438;2023-07-28T11:57:21;1.20;;;1.10;;
13090;SDS011;6611;52.604;13.438;2023-07-28T12:02:27;1.47;;;1.30;;
13090;SDS011;6611;52.604;13.438;2023-07-28T12:07:29;2.30;;;1.50;;
13090;SDS011;6611;52.604;13.438;2023-07-28T12:12:38;2.80;;;1.50;;
13090;SDS011;6611;52.604;13.438;2023-07-28T12:17:46;2.37;;;1.50;;
13090;SDS011;6611;52.604;13.438;2023-07-28T12:23:03;2.77;;;2.03;;
13090;SDS011;6611;52.604;13.438;2023-07-28T12:28:05;1.90;;;1.57;;
13090;SDS011;6611;52.604;13.438;2023-07-28T12:33:08;1.60;;;1.50;;
13090;SDS011;6611;52.604;13.438;2023-07-28T12:38:11;2.50;;;1.90;;
13090;SDS011;6611;52.604;13.438;2023-07-28T12:43:13;1.80;;;1.70;;
13090;SDS011;6611;52.604;13.438;2023-07-28T12:48:17;1.80;;;1.70;;
13090;SDS011;6611;52.604;13.438;2023-07-28T12:53:19;2.00;;;1.90;;
13090;SDS011;6611;52.604;13.438;2023-07-28T12:58:20;2.23;;;2.03;;
13090;SDS011;6611;52.604;13.438;2023-07-28T13:03:24;2.03;;;1.93;;
13090;SDS011;6611;52.604;13.438;2023-07-28T13:08:25;3.93;;;1.90;;
13090;SDS011;6611;52.604;13.438;2023-07-28T13:13:27;2.20;;;2.00;;
13090;SDS011;6611;52.604;13.438;2023-07-28T13:18:31;2.60;;;1.97;;
13090;SDS011;6611;52.604;13.438;2023-07-28T13:23:33;2.17;;;1.70;;
13090;SDS011;6611;52.604;13.438;2023-07-28T13:28:35;1.97;;;1.77;;
13090;SDS011;6611;52.604;13.438;2023-07-28T13:33:38;1.80;;;1.70;;
13090;SDS011;6611;52.604;13.438;2023-07-28T13:38:39;1.77;;;1.67;;
13090;SDS011;6611;52.604;13.438;2023-07-28T13:43:41;1.50;;;1.40;;
13090;SDS011;6611;52.604;13.438;2023-07-28T13:48:44;1.50;;;1.40;;
13090;SDS011;6611;52.604;13.438;2023-07-28T13:53:46;1.47;;;1.37;;
13090;SDS011;6611;52.604;13.438;2023-07-28T13:58:47;2.03;;;1.43;;
13090;SDS011;6611;52.604;13.438;2023-07-28T14:03:50;1.20;;;1.10;;
13090;SDS011;6611;52.604;13.438;2023-07-28T14:08:52;1.37;;;1.27;;
13090;SDS011;6611;52.604;13.438;2023-07-28T14:13:54;1.27;;;1.17;;
13090;SDS011;6611;52.604;13.438;2023-07-28T14:18:57;1.30;;;1.20;;
13090;SDS011;6611;52.604;13.438;2023-07-28T14:23:58;2.00;;;1.60;;
13090;SDS011;6611;52.604;13.438;2023-07-28T14:29:00;1.60;;;1.27;;
13090;SDS011;6611;52.604;13.438;2023-07-28T14:34:03;1.50;;;1.37;;
13090;SDS011;6611;52.604;13.438;2023-07-28T14:39:04;1.40;;;1.30;;
13090;SDS011;6611;52.604;13.438;2023-07-28T14:44:06;1.10;;;1.00;;
13090;SDS011;6611;52.604;13.438;2023-07-28T14:49:09;2.47;;;1.40;;
13090;SDS011;6611;52.604;13.438;2023-07-28T14:54:11;1.77;;;1.00;;
13090;SDS011;6611;52.604;13.438;2023-07-28T14:59:12;1.30;;;1.20;;
13090;SDS011;6611;52.604;13.438;2023-07-28T15:04:17;1.67;;;1.40;;
13090;SDS011;6611;52.604;13.438;2023-07-28T15:09:18;1.40;;;1.30;;
13090;SDS011;6611;52.604;13.438;2023-07-28T15:14:22;1.67;;;1.30;;
13090;SDS011;6611;52.604;13.438;2023-07-28T15:19:25;1.30;;;1.20;;
13090;SDS011;6611;52.604;13.438;2023-07-28T15:24:27;1.50;;;1.40;;
13090;SDS011;6611;52.604;13.438;2023-07-28T15:29:29;1.17;;;1.07;;
13090;SDS011;6611;52.604;13.438;2023-07-28T15:34:32;1.47;;;1.37;;
13090;SDS011;6611;52.604;13.438;2023-07-28T15:39:34;1.30;;;1.20;;
13090;SDS011;6611;52.604;13.438;2023-07-28T15:44:36;1.30;;;1.20;;
13090;SDS011;6611;52.604;13.438;2023-07-28T15:49:39;1.53;;;1.13;;
13090;SDS011;6611;52.604;13.438;2023-07-28T15:54:40;2.13;;;1.50;;
13090;SDS011;6611;52.604;13.438;2023-07-28T15:59:42;1.53;;;1.30;;
13090;SDS011;6611;52.604;13.438;2023-07-28T16:04:47;1.67;;;1.57;;
13090;SDS011;6611;52.604;13.438;2023-07-28T16:09:51;2.00;;;1.40;;
13090;SDS011;6611;52.604;13.438;2023-07-28T16:14:54;1.60;;;1.50;;
13090;SDS011;6611;52.604;13.438;2023-07-28T16:19:57;1.70;;;1.60;;
13090;SDS011;6611;52.604;13.438;2023-07-28T16:24:59;1.80;;;1.50;;
13090;SDS011;6611;52.604;13.438;2023-07-28T16:30:03;1.63;;;1.53;;
13090;SDS011;6611;52.604;13.438;2023-07-28T16:35:08;1.60;;;1.40;;
13090;SDS011;6611;52.604;13.438;2023-07-28T16:40:09;2.50;;;2.30;;
13090;SDS011;6611;52.604;13.438;2023-07-28T16:45:12;2.53;;;1.87;;
13090;SDS011;6611;52.604;13.438;2023-07-28T16:50:14;2.00;;;1.70;;
13090;SDS011;6611;52.604;13.438;2023-07-28T16:55:17;1.30;;;1.20;;
13090;SDS011;6611;52.604;13.438;2023-07-28T17:00:19;4.20;;;1.33;;
13090;SDS011;6611;52.604;13.438;2023-07-28T17:05:22;2.60;;;1.23;;
13090;SDS011;6611;52.604;13.438;2023-07-28T17:10:25;2.00;;;1.37;;
13090;SDS011;6611;52.604;13.438;2023-07-28T17:15:27;1.30;;;1.20;;
13090;SDS011;6611;52.604;13.438;2023-07-28T17:20:30;1.43;;;1.27;;
13090;SDS011;6611;52.604;13.438;2023-07-28T17:25:32;1.77;;;1.63;;
13090;SDS011;6611;52.604;13.438;2023-07-28T17:30:34;1.60;;;1.50;;
13090;SDS011;6611;52.604;13.438;2023-07-28T17:35:37;1.83;;;1.63;;
13090;SDS011;6611;52.604;13.438;2023-07-28T17:40:38;1.47;;;1.37;;
13090;SDS011;6611;52.604;13.438;2023-07-28T17:45:40;3.53;;;1.43;;
13090;SDS011;6611;52.604;13.438;2023-07-28T17:50:43;1.83;;;1.70;;
13090;SDS011;6611;52.604;13.438;2023-07-28T17:55:44;1.60;;;1.50;;
13090;SDS011;6611;52.604;13.438;2023-07-28T18:00:46;1.93;;;1.73;;
13090;SDS011;6611;52.604;13.438;2023-07-28T18:05:50;2.37;;;2.17;;
13090;SDS011;6611;52.604;13.438;2023-07-28T18:10:51;2.53;;;2.00;;
13090;SDS011;6611;52.604;13.438;2023-07-28T18:15:53;1.87;;;1.70;;
13090;SDS011;6611;52.604;13.438;2023-07-28T18:20:56;1.70;;;1.60;;
13090;SDS011;6611;52.604;13.438;2023-07-28T18:25:58;1.57;;;1.47;;
13090;SDS011;6611;52.604;13.438;2023-07-28T18:31:00;2.27;;;1.73;;
13090;SDS011;6611;52.604;13.438;2023-07-28T18:36:03;1.70;;;1.60;;
13090;SDS011;6611;52.604;13.438;2023-07-28T18:41:05;2.50;;;1.87;;
13090;SDS011;6611;52.604;13.438;2023-07-28T18:46:08;1.90;;;1.80;;
13090;SDS011;6611;52.604;13.438;2023-07-28T18:51:11;3.00;;;2.53;;
13090;SDS011;6611;52.604;13.438;2023-07-28T18:56:13;2.67;;;2.43;;
13090;SDS011;6611;52.604;13.438;2023-07-28T19:01:15;3.93;;;2.97;;
13090;SDS011;6611;52.604;13.438;2023-07-28T19:06:18;2.77;;;2.57;;
13090;SDS011;6611;52.604;13.438;2023-07-28T19:11:20;4.60;;;3.40;;
13090;SDS011;6611;52.604;13.438;2023-07-28T19:16:22;3.80;;;3.50;;
13090;SDS011;6611;52.604;13.438;2023-07-28T19:21:25;3.50;;;3.20;;
13090;SDS011;6611;52.604;13.438;2023-07-28T19:26:26;3.43;;;3.13;;
13090;SDS011;6611;52.604;13.438;2023-07-28T19:31:28;3.30;;;2.83;;
13090;SDS011;6611;52.604;13.438;2023-07-28T19:36:31;3.50;;;3.20;;
13090;SDS011;6611;52.604;13.438;2023-07-28T19:41:33;3.47;;;3.10;;
13090;SDS011;6611;52.604;13.438;2023-07-28T19:46:34;3.80;;;3.40;;
13090;SDS011;6611;52.604;13.438;2023-07-28T19:51:37;3.00;;;2.80;;
13090;SDS011;6611;52.604;13.438;2023-07-28T19:56:39;3.60;;;3.23;;
13090;SDS011;6611;52.604;13.438;2023-07-28T20:01:41;3.40;;;3.03;;
13090;SDS011;6611;52.604;13.438;2023-07-28T20:06:44;3.40;;;3.10;;
13090;SDS011;6611;52.604;13.438;2023-07-28T20:11:45;3.57;;;3.27;;
13090;SDS011;6611;52.604;13.438;2023-07-28T20:16:47;3.40;;;3.10;;
13090;SDS011;6611;52.604;13.438;2023-07-28T20:21:50;3.23;;;2.93;;
13090;SDS011;6611;52.604;13.438;2023-07-28T20:26:52;4.00;;;3.60;;
13090;SDS011;6611;52.604;13.438;2023-07-28T20:31:54;3.93;;;3.30;;
13090;SDS011;6611;52.604;13.438;2023-07-28T20:36:57;4.03;;;3.30;;
13090;SDS011;6611;52.604;13.438;2023-07-28T20:41:58;4.17;;;3.70;;
13090;SDS011;6611;52.604;13.438;2023-07-28T20:47:00;4.00;;;3.00;;
13090;SDS011;6611;52.604;13.438;2023-07-28T20:52:04;3.70;;;2.80;;
13090;SDS011;6611;52.604;13.438;2023-07-28T20:57:06;3.20;;;2.60;;
13090;SDS011;6611;52.604;13.438;2023-07-28T21:02:08;2.90;;;2.67;;
13090;SDS011;6611;52.604;13.438;2023-07-28T21:07:11;3.27;;;2.97;;
13090;SDS011;6611;52.604;13.438;2023-07-28T21:12:13;3.47;;;3.17;;
13090;SDS011;6611;52.604;13.438;2023-07-28T21:17:15;4.70;;;3.10;;
13090;SDS011;6611;52.604;13.438;2023-07-28T21:22:18;3.77;;;2.90;;
13090;SDS011;6611;52.604;13.438;2023-07-28T21:27:19;3.30;;;3.00;;
13090;SDS011;6611;52.604;13.438;2023-07-28T21:32:21;5.37;;;4.87;;
13090;SDS011;6611;52.604;13.438;2023-07-28T21:37:24;4.07;;;3.70;;
13090;SDS011;6611;52.604;13.438;2023-07-28T21:42:26;4.47;;;3.87;;
13090;SDS011;6611;52.604;13.438;2023-07-28T21:47:28;4.20;;;3.80;;
13090;SDS011;6611;52.604;13.438;2023-07-28T21:52:31;4.50;;;3.83;;
13090;SDS011;6611;52.604;13.438;2023-07-28T21:57:32;4.73;;;3.87;;
13090;SDS011;6611;52.604;13.438;2023-07-28T22:02:34;4.33;;;3.93;;
13090;SDS011;6611;52.604;13.438;2023-07-28T22:07:37;4.20;;;3.80;;
13090;SDS011;6611;52.604;13.438;2023-07-28T22:12:39;4.20;;;3.80;;
13090;SDS011;6611;52.604;13.438;2023-07-28T22:17:40;4.37;;;3.90;;
13090;SDS011;6611;52.604;13.438;2023-07-28T22:22:44;4.47;;;3.60;;
13090;SDS011;6611;52.604;13.438;2023-07-28T22:27:45;5.77;;;3.90;;
13090;SDS011;6611;52.604;13.438;2023-07-28T22:32:47;5.10;;;4.60;;
13090;SDS011;6611;52.604;13.438;2023-07-28T22:37:50;4.97;;;4.47;;
13090;SDS011;6611;52.604;13.438;2023-07-28T22:42:51;4.57;;;4.07;;
13090;SDS011;6611;52.604;13.438;2023-07-28T22:47:53;7.27;;;4.30;;
13090;SDS011;6611;52.604;13.438;2023-07-28T22:52:56;4.30;;;3.90;;
13090;SDS011;6611;52.604;13.438;2023-07-28T22:57:58;5.00;;;4.50;;
13090;SDS011;6611;52.604;13.438;2023-07-28T23:03:00;5.10;;;4.53;;
13090;SDS011;6611;52.604;13.438;2023-07-28T23:08:03;4.77;;;4.37;;
13090;SDS011;6611;52.604;13.438;2023-07-28T23:13:05;5.50;;;4.73;;
13090;SDS011;6611;52.604;13.438;2023-07-28T23:18:06;5.40;;;4.50;;
13090;SDS011;6611;52.604;13.438;2023-07-28T23:23:09;5.07;;;4.57;;
13090;SDS011;6611;52.604;13.438;2023-07-28T23:28:11;5.60;;;5.00;;
13090;SDS011;6611;52.604;13.438;2023-07-28T23:33:13;6.07;;;5.43;;
13090;SDS011;6611;52.604;13.438;2023-07-28T23:38:16;7.37;;;5.67;;
13090;SDS011;6611;52.604;13.438;2023-07-28T23:43:17;7.87;;;5.30;;
13090;SDS011;6611;52.604;13.438;2023-07-28T23:48:19;7.17;;;5.30;;
13090;SDS011;6611;52.604;13.438;2023-07-28T23:53:23;5.60;;;5.00;;
13090;SDS011;6611;52.604;13.438;2023-07-28T23:58:25;6.53;;;5.03;;
